sensor_id;sensor_type;location;lat;lon;timestamp;pressure;altitude;pressure_sealevel;temperature;humidity
22930;BME280;11630;42.660;23.292;2023-01-26T00:00:10;67671.73;;;1.16;100.00
22930;BME280;11630;42.660;23.292;2023-01-26T00:02:41;67667.13;;;1.11;100.00
22930;BME280;11630;42.660;23.292;2023-01-26T00:05:11;67653.13;;;0.98;100.00
22930;BME280;11630;42.660;23.292;2023-01-26T00:07:41;67679.79;;;1.21;100.00
22930;BME280;11630;42.660;23.292;2023-01-26T00:10:14;67676.84;;;1.20;100.00
22930;BME280;11630;42.660;23.292;2023-01-26T00:12:45;67656.09;;;1.02;100.00
22930;BME280;11630;42.660;23.292;2023-01-26T00:15:16;67657.17;;;1.03;100.00
22930;BME280;11630;42.660;23.292;2023-01-26T00:17:47;67674.42;;;1.19;100.00
22930;BME280;11630;42.660;23.292;2023-01-26T00:20:17;67683.56;;;1.25;100.00
22930;BME280;11630;42.660;23.292;2023-01-26T00:22:49;67673.59;;;1.17;100.00
22930;BME280;11630;42.660;23.292;2023-01-26T00:25:20;67698.91;;;1.38;100.00
22930;BME280;11630;42.660;23.292;2023-01-26T00:27:51;67665.28;;;1.13;100.00
22930;BME280;11630;42.660;23.292;2023-01-26T00:30:22;67644.49;;;0.90;100.00
22930;BME280;11630;42.660;23.292;2023-01-26T00:32:53;67675.48;;;1.17;100.00
22930;BME280;11630;42.660;23.292;2023-01-26T00:35:24;67669.04;;;1.14;100.00
22930;BME280;11630;42.660;23.292;2023-01-26T00:37:55;67655.03;;;1.03;100.00
22930;BME280;11630;42.660;23.292;2023-01-26T00:40:26;67643.94;;;0.89;100.00
22930;BME280;11630;42.660;23.292;2023-01-26T00:42:56;67670.38;;;1.14;100.00
22930;BME280;11630;42.660;23.292;2023-01-26T00:45:30;67666.56;;;1.08;100.00
22930;BME280;11630;42.660;23.292;2023-01-26T00:48:00;67689.52;;;1.33;100.00
22930;BME280;11630;42.660;23.292;2023-01-26T00:50:31;67657.44;;;1.04;100.00
22930;BME280;11630;42.660;23.292;2023-01-26T00:53:00;67629.95;;;0.79;100.00
22930;BME280;11630;42.660;23.292;2023-01-26T00:55:32;67649.05;;;0.93;100.00
22930;BME280;11630;42.660;23.292;2023-01-26T00:58:03;67649.58;;;0.91;100.00
22930;BME280;11630;42.660;23.292;2023-01-26T01:00:36;67623.26;;;0.76;100.00
22930;BME280;11630;42.660;23.292;2023-01-26T01:03:08;67633.98;;;0.81;100.00
22930;BME280;11630;42.660;23.292;2023-01-26T01:05:39;67663.61;;;1.06;100.00
22930;BME280;11630;42.660;23.292;2023-01-26T01:08:10;67631.29;;;0.79;100.00
22930;BME280;11630;42.660;23.292;2023-01-26T01:10:41;67629.45;;;0.81;100.00
22930;BME280;11630;42.660;23.292;2023-01-26T01:13:12;67651.78;;;0.98;100.00
22930;BME280;11630;42.660;23.292;2023-01-26T01:15:42;67618.64;;;0.69;100.00
22930;BME280;11630;42.660;23.292;2023-01-26T01:18:13;67657.14;;;1.00;100.00
22930;BME280;11630;42.660;23.292;2023-01-26T01:20:44;67652.36;;;1.03;100.00
22930;BME280;11630;42.660;23.292;2023-01-26T01:23:15;67641.25;;;0.87;100.00
22930;BME280;11630;42.660;23.292;2023-01-26T01:25:54;67649.88;;;0.95;100.00
22930;BME280;11630;42.660;23.292;2023-01-26T01:28:18;67647.72;;;0.93;100.00
22930;BME280;11630;42.660;23.292;2023-01-26T01:30:49;67639.91;;;0.87;100.00
22930;BME280;11630;42.660;23.292;2023-01-26T01:33:21;67622.96;;;0.73;100.00
22930;BME280;11630;42.660;23.292;2023-01-26T01:36:05;67639.66;;;0.88;100.00
22930;BME280;11630;42.660;23.292;2023-01-26T01:38:31;67631.86;;;0.82;100.00
22930;BME280;11630;42.660;23.292;2023-01-26T01:41:04;67662.83;;;1.07;100.00
22930;BME280;11630;42.660;23.292;2023-01-26T01:43:36;67645.32;;;0.92;100.00
22930;BME280;11630;42.660;23.292;2023-01-26T01:49:05;67651.19;;;0.92;100.00
22930;BME280;11630;42.660;23.292;2023-01-26T01:51:38;67662.55;;;1.08;100.00
22930;BME280;11630;42.660;23.292;2023-01-26T01:54:15;67642.91;;;0.91;100.00
22930;BME280;11630;42.660;23.292;2023-01-26T01:56:49;67656.59;;;1.00;100.00
22930;BME280;11630;42.660;23.292;2023-01-26T01:59:20;67653.67;;;1.01;100.00
22930;BME280;11630;42.660;23.292;2023-01-26T02:01:53;67650.95;;;0.96;100.00
22930;BME280;11630;42.660;23.292;2023-01-26T02:04:24;67655.81;;;1.00;100.00
22930;BME280;11630;42.660;23.292;2023-01-26T02:06:58;67657.42;;;1.02;100.00
22930;BME280;11630;42.660;23.292;2023-01-26T02:09:32;67643.98;;;0.92;100.00
22930;BME280;11630;42.660;23.292;2023-01-26T02:12:19;67672.52;;;1.16;100.00
22930;BME280;11630;42.660;23.292;2023-01-26T02:14:54;67683.05;;;1.27;100.00
22930;BME280;11630;42.660;23.292;2023-01-26T02:17:25;67643.98;;;0.92;100.00
22930;BME280;11630;42.660;23.292;2023-01-26T02:20:43;67661.22;;;1.08;100.00
22930;BME280;11630;42.660;23.292;2023-01-26T02:25:09;67674.11;;;1.15;100.00
22930;BME280;11630;42.660;23.292;2023-01-26T02:27:37;67666.86;;;1.09;100.00
22930;BME280;11630;42.660;23.292;2023-01-26T02:30:10;67648.03;;;0.97;100.00
22930;BME280;11630;42.660;23.292;2023-01-26T02:32:41;67641.55;;;0.88;100.00
22930;BME280;11630;42.660;23.292;2023-01-26T02:35:12;67664.95;;;1.06;100.00
22930;BME280;11630;42.660;23.292;2023-01-26T02:37:43;67605.45;;;0.58;100.00
22930;BME280;11630;42.660;23.292;2023-01-26T02:40:17;67649.37;;;0.97;100.00
22930;BME280;11630;42.660;23.292;2023-01-26T02:42:46;67645.83;;;0.90;100.00
22930;BME280;11630;42.660;23.292;2023-01-26T02:45:18;67632.37;;;0.80;100.00
22930;BME280;11630;42.660;23.292;2023-01-26T02:47:48;67621.81;;;0.67;100.00
22930;BME280;11630;42.660;23.292;2023-01-26T02:50:18;67613.74;;;0.59;100.00
22930;BME280;11630;42.660;23.292;2023-01-26T02:52:52;67629.09;;;0.72;100.00
22930;BME280;11630;42.660;23.292;2023-01-26T02:55:22;67617.53;;;0.65;100.00
22930;BME280;11630;42.660;23.292;2023-01-26T02:58:01;67629.38;;;0.74;100.00
22930;BME280;11630;42.660;23.292;2023-01-26T03:00:35;67643.94;;;0.89;100.00
22930;BME280;11630;42.660;23.292;2023-01-26T03:03:12;67628.85;;;0.75;100.00
22930;BME280;11630;42.660;23.292;2023-01-26T03:05:42;67638.88;;;0.88;100.00
22930;BME280;11630;42.660;23.292;2023-01-26T03:08:12;67618.88;;;0.65;100.00
22930;BME280;11630;42.660;23.292;2023-01-26T03:10:43;67639.91;;;0.87;100.00
22930;BME280;11630;42.660;23.292;2023-01-26T03:13:13;67630.78;;;0.81;100.00
22930;BME280;11630;42.660;23.292;2023-01-26T03:15:44;67638.30;;;0.85;100.00
22930;BME280;11630;42.660;23.292;2023-01-26T03:18:19;67620.52;;;0.69;100.00
22930;BME280;11630;42.660;23.292;2023-01-26T03:21:14;67636.66;;;0.81;100.00
22930;BME280;11630;42.660;23.292;2023-01-26T03:24:00;67647.45;;;0.94;100.00
22930;BME280;11630;42.660;23.292;2023-01-26T03:26:48;67637.20;;;0.82;100.00
22930;BME280;11630;42.660;23.292;2023-01-26T03:29:35;67609.44;;;0.55;100.00
22930;BME280;11630;42.660;23.292;2023-01-26T03:32:05;67600.31;;;0.52;100.00
22930;BME280;11630;42.660;23.292;2023-01-26T03:34:36;67599.20;;;0.48;100.00
22930;BME280;11630;42.660;23.292;2023-01-26T03:37:07;67618.36;;;0.67;100.00
22930;BME280;11630;42.660;23.292;2023-01-26T03:39:38;67618.88;;;0.65;100.00
22930;BME280;11630;42.660;23.292;2023-01-26T03:42:25;67616.20;;;0.65;100.00
22930;BME280;11630;42.660;23.292;2023-01-26T03:45:12;67615.42;;;0.66;100.00
22930;BME280;11630;42.660;23.292;2023-01-26T03:48:09;67625.40;;;0.76;100.00
22930;BME280;11630;42.660;23.292;2023-01-26T03:50:56;67605.65;;;0.52;100.00
22930;BME280;11630;42.660;23.292;2023-01-26T03:53:43;67610.27;;;0.60;100.00
22930;BME280;11630;42.660;23.292;2023-01-26T03:56:31;67614.87;;;0.65;100.00
22930;BME280;11630;42.660;23.292;2023-01-26T03:59:05;67604.31;;;0.52;100.00
22930;BME280;11630;42.660;23.292;2023-01-26T04:01:40;67612.41;;;0.59;100.00
22930;BME280;11630;42.660;23.292;2023-01-26T04:04:11;67603.02;;;0.54;100.00
22930;BME280;11630;42.660;23.292;2023-01-26T04:06:58;67613.23;;;0.61;100.00
22930;BME280;11630;42.660;23.292;2023-01-26T04:09:45;67617.55;;;0.68;100.00
22930;BME280;11630;42.660;23.292;2023-01-26T04:12:16;67623.77;;;0.74;100.00
22930;BME280;11630;42.660;23.292;2023-01-26T04:14:47;67624.30;;;0.73;100.00
22930;BME280;11630;42.660;23.292;2023-01-26T04:17:34;67623.48;;;0.73;100.00
22930;BME280;11630;42.660;23.292;2023-01-26T04:20:21;67631.03;;;0.80;100.00
22930;BME280;11630;42.660;23.292;2023-01-26T04:23:16;67610.80;;;0.58;100.00
22930;BME280;11630;42.660;23.292;2023-01-26T04:25:40;67630.48;;;0.77;100.00
22930;BME280;11630;42.660;23.292;2023-01-26T04:28:12;67623.75;;;0.72;100.00
22930;BME280;11630;42.660;23.292;2023-01-26T04:30:42;67645.32;;;0.92;100.00
22930;BME280;11630;42.660;23.292;2023-01-26T04:33:13;67635.31;;;0.81;100.00
22930;BME280;11630;42.660;23.292;2023-01-26T04:35:46;67629.95;;;0.79;100.00
22930;BME280;11630;42.660;23.292;2023-01-26T04:38:17;67633.69;;;0.77;100.00
22930;BME280;11630;42.660;23.292;2023-01-26T04:40:53;67609.23;;;0.61;100.00
22930;BME280;11630;42.660;23.292;2023-01-26T04:43:25;67622.41;;;0.72;100.00
22930;BME280;11630;42.660;23.292;2023-01-26T04:46:03;67609.73;;;0.59;100.00
22930;BME280;11630;42.660;23.292;2023-01-26T04:48:34;67604.87;;;0.52;100.00
22930;BME280;11630;42.660;23.292;2023-01-26T04:51:12;67598.42;;;0.49;100.00
22930;BME280;11630;42.660;23.292;2023-01-26T04:53:39;67588.72;;;0.40;100.00
22930;BME280;11630;42.660;23.292;2023-01-26T04:56:21;67600.86;;;0.52;100.00
22930;BME280;11630;42.660;23.292;2023-01-26T04:58:41;67623.48;;;0.73;100.00
22930;BME280;11630;42.660;23.292;2023-01-26T05:01:12;67615.95;;;0.66;100.00
22930;BME280;11630;42.660;23.292;2023-01-26T05:03:43;67641.50;;;0.86;100.00
22930;BME280;11630;42.660;23.292;2023-01-26T05:06:13;67634.53;;;0.82;100.00
22930;BME280;11630;42.660;23.292;2023-01-26T05:08:43;67618.89;;;0.68;100.00
22930;BME280;11630;42.660;23.292;2023-01-26T05:11:14;67631.55;;;0.78;100.00
22930;BME280;11630;42.660;23.292;2023-01-26T05:13:46;67658.50;;;1.03;100.00
22930;BME280;11630;42.660;23.292;2023-01-26T05:16:17;67619.72;;;0.70;100.00
22930;BME280;11630;42.660;23.292;2023-01-26T05:18:47;67616.71;;;0.63;100.00
22930;BME280;11630;42.660;23.292;2023-01-26T05:21:18;67605.39;;;0.53;100.00
22930;BME280;11630;42.660;23.292;2023-01-26T05:23:48;67605.44;;;0.55;100.00
22930;BME280;11630;42.660;23.292;2023-01-26T05:26:19;67631.82;;;0.77;100.00
22930;BME280;11630;42.660;23.292;2023-01-26T05:28:50;67634.78;;;0.81;100.00
22930;BME280;11630;42.660;23.292;2023-01-26T05:31:20;67627.24;;;0.74;100.00
22930;BME280;11630;42.660;23.292;2023-01-26T05:33:51;67638.81;;;0.83;100.00
22930;BME280;11630;42.660;23.292;2023-01-26T05:36:22;67644.22;;;0.88;100.00
22930;BME280;11630;42.660;23.292;2023-01-26T05:38:52;67640.99;;;0.88;100.00
22930;BME280;11630;42.660;23.292;2023-01-26T05:41:23;67629.66;;;0.75;100.00
22930;BME280;11630;42.660;23.292;2023-01-26T05:43:54;67631.25;;;0.74;100.00
22930;BME280;11630;42.660;23.292;2023-01-26T05:46:25;67650.70;;;0.97;100.00
22930;BME280;11630;42.660;23.292;2023-01-26T05:48:56;67653.65;;;0.98;100.00
22930;BME280;11630;42.660;23.292;2023-01-26T05:51:27;67643.17;;;0.92;100.00
22930;BME280;11630;42.660;23.292;2023-01-26T05:53:58;67664.44;;;1.08;100.00
22930;BME280;11630;42.660;23.292;2023-01-26T05:56:29;67661.52;;;1.09;100.00
22930;BME280;11630;42.660;23.292;2023-01-26T05:59:00;67656.34;;;1.01;100.00
22930;BME280;11630;42.660;23.292;2023-01-26T06:01:31;67646.38;;;0.93;100.00
22930;BME280;11630;42.660;23.292;2023-01-26T06:04:02;67667.98;;;1.15;100.00
22930;BME280;11630;42.660;23.292;2023-01-26T06:06:33;67643.70;;;0.93;100.00
22930;BME280;11630;42.660;23.292;2023-01-26T06:09:03;67655.79;;;0.98;100.00
22930;BME280;11630;42.660;23.292;2023-01-26T06:11:34;67639.91;;;0.87;100.00
22930;BME280;11630;42.660;23.292;2023-01-26T06:14:05;67642.08;;;0.89;100.00
22930;BME280;11630;42.660;23.292;2023-01-26T06:16:36;67664.70;;;1.07;100.00
22930;BME280;11630;42.660;23.292;2023-01-26T06:19:07;67647.42;;;0.89;100.00
22930;BME280;11630;42.660;23.292;2023-01-26T06:21:37;67644.75;;;0.89;100.00
22930;BME280;11630;42.660;23.292;2023-01-26T06:24:08;67659.35;;;1.07;100.00
22930;BME280;11630;42.660;23.292;2023-01-26T06:26:39;67662.83;;;1.07;100.00
22930;BME280;11630;42.660;23.292;2023-01-26T06:29:10;67652.31;;;0.98;100.00
22930;BME280;11630;42.660;23.292;2023-01-26T06:31:41;67654.20;;;0.99;100.00
22930;BME280;11630;42.660;23.292;2023-01-26T06:34:10;67690.34;;;1.35;100.00
22930;BME280;11630;42.660;23.292;2023-01-26T06:36:41;67659.84;;;1.03;100.00
22930;BME280;11630;42.660;23.292;2023-01-26T06:39:13;67697.58;;;1.38;100.00
22930;BME280;11630;42.660;23.292;2023-01-26T06:41:43;67669.80;;;1.11;100.00
22930;BME280;11630;42.660;23.292;2023-01-26T06:44:14;67662.83;;;1.07;100.00
22930;BME280;11630;42.660;23.292;2023-01-26T06:46:45;67676.84;;;1.20;100.00
22930;BME280;11630;42.660;23.292;2023-01-26T06:49:16;67649.37;;;0.97;100.00
22930;BME280;11630;42.660;23.292;2023-01-26T06:51:54;67646.93;;;0.93;100.00
22930;BME280;11630;42.660;23.292;2023-01-26T06:54:27;67664.44;;;1.08;100.00
22930;BME280;11630;42.660;23.292;2023-01-26T06:56:59;67648.03;;;0.97;100.00
22930;BME280;11630;42.660;23.292;2023-01-26T06:59:29;67686.27;;;1.30;100.00
22930;BME280;11630;42.660;23.292;2023-01-26T07:02:00;67675.25;;;1.21;100.00
22930;BME280;11630;42.660;23.292;2023-01-26T07:04:30;67706.78;;;1.49;100.00
22930;BME280;11630;42.660;23.292;2023-01-26T07:07:00;67691.42;;;1.36;100.00
22930;BME280;11630;42.660;23.292;2023-01-26T07:09:32;67687.31;;;1.26;100.00
22930;BME280;11630;42.660;23.292;2023-01-26T07:12:02;67688.44;;;1.32;100.00
22930;BME280;11630;42.660;23.292;2023-01-26T07:14:32;67691.66;;;1.32;100.00
22930;BME280;11630;42.660;23.292;2023-01-26T07:17:02;67696.27;;;1.40;100.00
22930;BME280;11630;42.660;23.292;2023-01-26T07:19:33;67714.08;;;1.56;100.00
22930;BME280;11630;42.660;23.292;2023-01-26T07:22:04;67679.55;;;1.25;100.00
22930;BME280;11630;42.660;23.292;2023-01-26T07:24:35;67707.86;;;1.50;100.00
22930;BME280;11630;42.660;23.292;2023-01-26T07:27:06;67709.20;;;1.50;100.00
22930;BME280;11630;42.660;23.292;2023-01-26T07:29:37;67696.27;;;1.40;100.00
22930;BME280;11630;42.660;23.292;2023-01-26T07:32:08;67689.01;;;1.35;100.00
22930;BME280;11630;42.660;23.292;2023-01-26T07:34:43;67695.71;;;1.37;100.00
22930;BME280;11630;42.660;23.292;2023-01-26T07:37:14;67715.11;;;1.55;100.00
22930;BME280;11630;42.660;23.292;2023-01-26T07:39:44;67705.95;;;1.47;100.00
22930;BME280;11630;42.660;23.292;2023-01-26T07:42:15;67715.11;;;1.55;100.00
22930;BME280;11630;42.660;23.292;2023-01-26T07:44:45;67728.63;;;1.70;100.00
22930;BME280;11630;42.660;23.292;2023-01-26T07:47:16;67722.16;;;1.64;100.00
22930;BME280;11630;42.660;23.292;2023-01-26T07:49:47;67724.84;;;1.66;100.00
22930;BME280;11630;42.660;23.292;2023-01-26T07:52:18;67708.14;;;1.51;100.00
22930;BME280;11630;42.660;23.292;2023-01-26T07:54:49;67736.16;;;1.74;100.00
22930;BME280;11630;42.660;23.292;2023-01-26T07:57:19;67731.06;;;1.73;100.00
22930;BME280;11630;42.660;23.292;2023-01-26T07:59:54;67749.88;;;1.83;100.00
22930;BME280;11630;42.660;23.292;2023-01-26T08:02:25;67742.35;;;1.79;100.00
22930;BME280;11630;42.660;23.292;2023-01-26T08:04:55;67725.64;;;1.63;100.00
22930;BME280;11630;42.660;23.292;2023-01-26T08:07:27;67724.31;;;1.66;100.00
22930;BME280;11630;42.660;23.292;2023-01-26T08:09:58;67716.75;;;1.56;100.00
22930;BME280;11630;42.660;23.292;2023-01-26T08:12:29;67732.11;;;1.69;100.00
22930;BME280;11630;42.660;23.292;2023-01-26T08:15:00;67749.39;;;1.88;100.00
22930;BME280;11630;42.660;23.292;2023-01-26T08:17:31;67749.12;;;1.86;100.00
22930;BME280;11630;42.660;23.292;2023-01-26T08:20:02;67757.75;;;1.94;100.00
22930;BME280;11630;42.660;23.292;2023-01-26T08:22:32;67747.25;;;1.88;100.00
22930;BME280;11630;42.660;23.292;2023-01-26T08:25:05;67725.64;;;1.63;100.00
22930;BME280;11630;42.660;23.292;2023-01-26T08:27:35;67752.91;;;1.92;100.00
22930;BME280;11630;42.660;23.292;2023-01-26T08:30:07;67786.38;;;2.23;100.00
22930;BME280;11630;42.660;23.292;2023-01-26T08:32:38;67753.66;;;1.87;100.00
22930;BME280;11630;42.660;23.292;2023-01-26T08:35:09;67733.20;;;1.73;100.00
22930;BME280;11630;42.660;23.292;2023-01-26T08:37:39;67748.80;;;1.82;100.00
22930;BME280;11630;42.660;23.292;2023-01-26T08:40:10;67745.05;;;1.81;100.00
22930;BME280;11630;42.660;23.292;2023-01-26T08:42:41;67762.89;;;2.00;100.00
22930;BME280;11630;42.660;23.292;2023-01-26T08:45:13;67732.62;;;1.67;100.00
22930;BME280;11630;42.660;23.292;2023-01-26T08:47:44;67725.93;;;1.67;100.00
22930;BME280;11630;42.660;23.292;2023-01-26T08:50:15;67738.32;;;1.76;100.00
22930;BME280;11630;42.660;23.292;2023-01-26T08:52:46;67750.23;;;1.92;100.00
22930;BME280;11630;42.660;23.292;2023-01-26T08:55:17;67747.19;;;1.81;100.00
22930;BME280;11630;42.660;23.292;2023-01-26T08:57:50;67759.64;;;1.97;100.00
22930;BME280;11630;42.660;23.292;2023-01-26T09:00:18;67777.47;;;2.14;100.00
22930;BME280;11630;42.660;23.292;2023-01-26T09:03:04;67762.63;;;2.01;100.00
22930;BME280;11630;42.660;23.292;2023-01-26T09:05:38;67789.34;;;2.27;100.00
22930;BME280;11630;42.660;23.292;2023-01-26T09:08:08;67805.52;;;2.39;100.00
22930;BME280;11630;42.660;23.292;2023-01-26T09:10:38;67786.06;;;2.19;100.00
22930;BME280;11630;42.660;23.292;2023-01-26T09:13:09;67794.44;;;2.28;100.00
22930;BME280;11630;42.660;23.292;2023-01-26T09:15:42;67823.88;;;2.56;100.00
22930;BME280;11630;42.660;23.292;2023-01-26T09:18:13;67785.80;;;2.20;100.00
22930;BME280;11630;42.660;23.292;2023-01-26T09:20:44;67773.16;;;2.12;100.00
22930;BME280;11630;42.660;23.292;2023-01-26T09:23:15;67769.36;;;2.06;100.00
22930;BME280;11630;42.660;23.292;2023-01-26T09:25:51;67774.80;;;2.16;100.00
22930;BME280;11630;42.660;23.292;2023-01-26T09:28:18;67792.84;;;2.29;100.00
22930;BME280;11630;42.660;23.292;2023-01-26T09:30:48;67814.66;;;2.43;100.00
22930;BME280;11630;42.660;23.292;2023-01-26T09:33:19;67773.12;;;2.07;100.00
22930;BME280;11630;42.660;23.292;2023-01-26T09:35:50;67777.72;;;2.13;100.00
22930;BME280;11630;42.660;23.292;2023-01-26T09:38:21;67799.32;;;2.35;100.00
22930;BME280;11630;42.660;23.292;2023-01-26T09:43:52;67792.28;;;2.26;100.00
22930;BME280;11630;42.660;23.292;2023-01-26T09:50:07;67806.58;;;2.38;100.00
22930;BME280;11630;42.660;23.292;2023-01-26T09:52:15;67797.44;;;2.32;100.00
22930;BME280;11630;42.660;23.292;2023-01-26T09:54:53;67826.06;;;2.61;100.00
22930;BME280;11630;42.660;23.292;2023-01-26T09:57:45;67817.11;;;2.49;100.00
22930;BME280;11630;42.660;23.292;2023-01-26T10:00:19;67811.99;;;2.45;100.00
22930;BME280;11630;42.660;23.292;2023-01-26T10:03:02;67816.86;;;2.50;100.00
22930;BME280;11630;42.660;23.292;2023-01-26T10:05:50;67817.91;;;2.46;100.00
22930;BME280;11630;42.660;23.292;2023-01-26T10:08:20;67809.02;;;2.41;100.00
22930;BME280;11630;42.660;23.292;2023-01-26T10:10:56;67814.67;;;2.45;100.00
22930;BME280;11630;42.660;23.292;2023-01-26T10:13:23;67799.58;;;2.34;100.00
22930;BME280;11630;42.660;23.292;2023-01-26T10:16:10;67774.49;;;2.12;100.00
22930;BME280;11630;42.660;23.292;2023-01-26T10:18:43;67797.95;;;2.30;100.00
22930;BME280;11630;42.660;23.292;2023-01-26T10:21:12;67826.27;;;2.55;100.00
22930;BME280;11630;42.660;23.292;2023-01-26T10:23:49;67814.73;;;2.50;100.00
22930;BME280;11630;42.660;23.292;2023-01-26T10:26:22;67823.33;;;2.56;100.00
22930;BME280;11630;42.660;23.292;2023-01-26T10:28:52;67823.59;;;2.55;100.00
22930;BME280;11630;42.660;23.292;2023-01-26T10:31:28;67811.41;;;2.40;100.00
22930;BME280;11630;42.660;23.292;2023-01-26T10:33:58;67803.08;;;2.36;100.00
22930;BME280;11630;42.660;23.292;2023-01-26T10:36:32;67770.98;;;2.10;100.00
22930;BME280;11630;42.660;23.292;2023-01-26T10:39:12;67789.05;;;2.23;100.00
22930;BME280;11630;42.660;23.292;2023-01-26T10:41:56;67787.71;;;2.23;100.00
22930;BME280;11630;42.660;23.292;2023-01-26T10:44:33;67791.77;;;2.28;100.00
22930;BME280;11630;42.660;23.292;2023-01-26T10:47:13;67793.10;;;2.28;100.00
22930;BME280;11630;42.660;23.292;2023-01-26T10:49:44;67810.14;;;2.47;100.00
22930;BME280;11630;42.660;23.292;2023-01-26T10:52:16;67816.09;;;2.53;100.00
22930;BME280;11630;42.660;23.292;2023-01-26T10:54:48;67821.98;;;2.56;100.00
22930;BME280;11630;42.660;23.292;2023-01-26T10:57:28;67832.52;;;2.64;100.00
22930;BME280;11630;42.660;23.292;2023-01-26T11:00:03;67823.34;;;2.58;100.00
22930;BME280;11630;42.660;23.292;2023-01-26T11:02:34;67836.81;;;2.66;100.00
22930;BME280;11630;42.660;23.292;2023-01-26T11:07:40;67813.88;;;2.46;100.00
22930;BME280;11630;42.660;23.292;2023-01-26T11:10:33;67850.81;;;2.74;100.00
22930;BME280;11630;42.660;23.292;2023-01-26T11:13:17;67835.22;;;2.67;100.00
22930;BME280;11630;42.660;23.292;2023-01-26T11:16:13;67838.72;;;2.69;100.00
22930;BME280;11630;42.660;23.292;2023-01-26T11:18:52;67845.75;;;2.78;100.00
22930;BME280;11630;42.660;23.292;2023-01-26T11:21:35;67863.60;;;2.97;100.00
22930;BME280;11630;42.660;23.292;2023-01-26T11:24:14;67841.41;;;2.69;100.00
22930;BME280;11630;42.660;23.292;2023-01-26T11:33:03;67844.65;;;2.74;100.00
22930;BME280;11630;42.660;23.292;2023-01-26T11:41:03;67850.59;;;2.80;100.00
22930;BME280;11630;42.660;23.292;2023-01-26T11:43:35;67821.19;;;2.54;100.00
22930;BME280;11630;42.660;23.292;2023-01-26T11:57:28;67851.93;;;2.80;100.00
22930;BME280;11630;42.660;23.292;2023-01-26T12:00:13;67859.23;;;2.88;100.00
22930;BME280;11630;42.660;23.292;2023-01-26T12:02:47;67847.09;;;2.78;100.00
22930;BME280;11630;42.660;23.292;2023-01-26T12:05:21;67832.78;;;2.63;100.00
22930;BME280;11630;42.660;23.292;2023-01-26T12:08:05;67857.64;;;2.89;100.00
22930;BME280;11630;42.660;23.292;2023-01-26T12:10:58;67854.95;;;2.89;100.00
22930;BME280;11630;42.660;23.292;2023-01-26T12:13:34;67861.95;;;2.93;100.00
22930;BME280;11630;42.660;23.292;2023-01-26T12:16:15;67836.56;;;2.67;100.00
22930;BME280;11630;42.660;23.292;2023-01-26T12:18:52;67864.11;;;2.95;100.00
22930;BME280;11630;42.660;23.292;2023-01-26T12:21:20;67828.45;;;2.59;100.00
22930;BME280;11630;42.660;23.292;2023-01-26T12:23:58;67863.29;;;2.93;100.00
22930;BME280;11630;42.660;23.292;2023-01-26T12:26:25;67850.06;;;2.79;100.00
22930;BME280;11630;42.660;23.292;2023-01-26T12:29:14;67829.25;;;2.59;100.00
22930;BME280;11630;42.660;23.292;2023-01-26T12:34:32;67840.61;;;2.72;100.00
22930;BME280;11630;42.660;23.292;2023-01-26T12:45:06;67833.82;;;2.62;100.00
22930;BME280;11630;42.660;23.292;2023-01-26T12:47:43;67842.46;;;2.70;100.00
22930;BME280;11630;42.660;23.292;2023-01-26T12:50:22;67864.63;;;2.93;100.00
22930;BME280;11630;42.660;23.292;2023-01-26T12:55:34;67853.55;;;2.81;100.00
22930;BME280;11630;42.660;23.292;2023-01-26T13:03:33;67846.28;;;2.76;100.00
22930;BME280;11630;42.660;23.292;2023-01-26T13:06:18;67845.20;;;2.75;100.00
22930;BME280;11630;42.660;23.292;2023-01-26T13:11:56;67866.81;;;2.97;100.00
22930;BME280;11630;42.660;23.292;2023-01-26T13:14:37;67830.38;;;2.65;100.00
22930;BME280;11630;42.660;23.292;2023-01-26T13:19:54;67845.73;;;2.75;100.00
22930;BME280;11630;42.660;23.292;2023-01-26T13:28:00;67861.67;;;2.91;100.00
22930;BME280;11630;42.660;23.292;2023-01-26T13:30:32;67877.34;;;3.05;100.00
22930;BME280;11630;42.660;23.292;2023-01-26T13:33:13;67879.49;;;3.07;100.00
22930;BME280;11630;42.660;23.292;2023-01-26T13:35:35;67868.17;;;3.00;100.00
22930;BME280;11630;42.660;23.292;2023-01-26T13:40:55;67834.39;;;2.65;100.00
22930;BME280;11630;42.660;23.292;2023-01-26T13:43:39;67858.72;;;2.90;100.00
22930;BME280;11630;42.660;23.292;2023-01-26T13:46:24;67851.67;;;2.81;100.00
22930;BME280;11630;42.660;23.292;2023-01-26T13:48:55;67838.45;;;2.70;100.00
22930;BME280;11630;42.660;23.292;2023-01-26T13:51:32;67857.89;;;2.88;100.00
22930;BME280;11630;42.660;23.292;2023-01-26T13:54:15;67854.92;;;2.84;100.00
22930;BME280;11630;42.660;23.292;2023-01-26T13:57:02;67842.80;;;2.76;100.00
22930;BME280;11630;42.660;23.292;2023-01-26T13:59:46;67847.34;;;2.77;100.00
22930;BME280;11630;42.660;23.292;2023-01-26T14:02:20;67854.87;;;2.79;100.00
22930;BME280;11630;42.660;23.292;2023-01-26T14:04:49;67870.84;;;3.00;100.00
22930;BME280;11630;42.660;23.292;2023-01-26T14:07:22;67871.13;;;2.99;100.00
22930;BME280;11630;42.660;23.292;2023-01-26T14:09:50;67857.64;;;2.89;100.00
22930;BME280;11630;42.660;23.292;2023-01-26T14:12:23;67870.05;;;2.98;100.00
22930;BME280;11630;42.660;23.292;2023-01-26T14:14:58;67872.74;;;3.00;100.00
22930;BME280;11630;42.660;23.292;2023-01-26T14:17:36;67866.80;;;2.95;100.00
22930;BME280;11630;42.660;23.292;2023-01-26T14:20:27;67865.20;;;2.96;100.00
22930;BME280;11630;42.660;23.292;2023-01-26T14:23:12;67885.17;;;3.11;100.00
22930;BME280;11630;42.660;23.292;2023-01-26T14:26:05;67893.81;;;3.19;100.00
22930;BME280;11630;42.660;23.292;2023-01-26T14:28:20;67889.22;;;3.16;100.00
22930;BME280;11630;42.660;23.292;2023-01-26T14:30:57;67911.91;;;3.37;100.00
22930;BME280;11630;42.660;23.292;2023-01-26T14:33:26;67884.63;;;3.13;100.00